createdAt,value
2022-10-20T00:01:57.133Z,7.13
2022-10-20T00:04:23.681Z,6.82
2022-10-20T00:06:50.136Z,6.68
2022-10-20T00:09:16.666Z,5.93
2022-10-20T00:11:45.821Z,6.80
2022-10-20T00:14:14.519Z,7.22
2022-10-20T00:16:40.971Z,6.85
2022-10-20T00:19:07.601Z,5.90
2022-10-20T00:21:34.640Z,6.75
2022-10-20T00:24:02.206Z,6.65
2022-10-20T00:26:30.697Z,6.13
2022-10-20T00:28:57.819Z,6.93
2022-10-20T00:31:25.239Z,6.10
2022-10-20T00:33:51.824Z,6.47
2022-10-20T00:36:20.604Z,6.97
2022-10-20T00:38:47.944Z,5.50
2022-10-20T00:41:21.984Z,6.45
2022-10-20T00:44:00.570Z,6.68
2022-10-20T00:46:36.717Z,7.35
2022-10-20T00:49:20.363Z,5.90
2022-10-20T00:51:50.912Z,6.25
2022-10-20T00:54:27.700Z,6.25
2022-10-20T00:56:59.804Z,6.53
2022-10-20T01:01:55.954Z,6.30
2022-10-20T01:04:22.904Z,6.13
2022-10-20T01:06:49.452Z,6.47
2022-10-20T01:09:15.929Z,7.13
2022-10-20T01:11:59.903Z,6.72
2022-10-20T01:14:59.856Z,6.93
2022-10-20T01:18:02.756Z,6.88
2022-10-20T01:21:04.248Z,6.32
2022-10-20T01:23:55.474Z,5.82
2022-10-20T01:26:57.665Z,6.20
2022-10-20T01:29:35.951Z,5.47
2022-10-20T01:32:34.811Z,5.97
2022-10-20T01:35:14.434Z,5.95
2022-10-20T01:37:56.021Z,6.25
2022-10-20T01:40:31.306Z,5.82
2022-10-20T01:43:02.059Z,6.57
2022-10-20T01:45:32.536Z,6.18
2022-10-20T01:48:05.047Z,6.35
2022-10-20T01:50:34.842Z,6.25
2022-10-20T01:53:01.815Z,6.15
2022-10-20T01:55:28.396Z,6.43
2022-10-20T01:58:12.679Z,6.32
2022-10-20T02:00:42.471Z,5.75
2022-10-20T02:03:27.369Z,7.15
2022-10-20T02:06:24.518Z,5.95
2022-10-20T02:08:55.917Z,6.95
2022-10-20T02:11:26.687Z,6.03
2022-10-20T02:13:56.625Z,6.75
2022-10-20T02:16:34.433Z,6.50
2022-10-20T02:19:01.993Z,6.97
2022-10-20T02:21:28.697Z,6.85
2022-10-20T02:24:00.392Z,5.88
2022-10-20T02:26:27.097Z,6.50
2022-10-20T02:28:58.918Z,6.40
2022-10-20T02:31:25.682Z,6.82
2022-10-20T02:33:54.419Z,6.43
2022-10-20T02:36:26.669Z,6.38
2022-10-20T02:38:53.320Z,6.55
2022-10-20T02:41:19.783Z,6.38
2022-10-20T02:43:53.599Z,7.30
2022-10-20T02:46:23.825Z,6.47
2022-10-20T02:48:52.494Z,6.57
2022-10-20T02:51:18.970Z,6.80
2022-10-20T02:53:45.843Z,6.22
2022-10-20T02:59:53.179Z,5.70
2022-10-20T03:02:22.082Z,6.07
2022-10-20T03:04:48.438Z,6.65
2022-10-20T03:07:15.042Z,6.20
2022-10-20T03:09:44.300Z,5.82
2022-10-20T03:12:10.683Z,6.85
2022-10-20T03:14:37.225Z,6.60
2022-10-20T03:17:03.705Z,6.78
2022-10-20T03:19:30.116Z,5.93
2022-10-20T03:21:56.727Z,6.10
2022-10-20T03:24:23.205Z,7.63
2022-10-20T03:26:51.896Z,6.30
2022-10-20T03:29:18.501Z,7.00
2022-10-20T03:31:45.217Z,6.68
2022-10-20T03:34:12.740Z,7.75
2022-10-20T03:36:39.267Z,6.47
2022-10-20T03:39:05.785Z,7.05
2022-10-20T03:41:34.494Z,5.97
2022-10-20T03:44:00.918Z,5.95
2022-10-20T03:46:27.355Z,6.75
2022-10-20T03:48:53.827Z,6.15
2022-10-20T03:51:20.445Z,6.70
2022-10-20T03:53:51.521Z,6.68
2022-10-20T03:56:21.297Z,6.72
2022-10-20T03:58:48.447Z,6.13
2022-10-20T04:01:24.591Z,5.90
2022-10-20T04:03:54.245Z,6.60
2022-10-20T04:06:20.783Z,7.07
2022-10-20T04:08:49.316Z,6.00
2022-10-20T04:11:15.780Z,5.75
2022-10-20T04:13:42.261Z,5.90
2022-10-20T04:16:08.727Z,5.53
2022-10-20T04:18:35.169Z,5.78
2022-10-20T04:21:01.648Z,6.65
2022-10-20T04:23:28.121Z,6.25
2022-10-20T04:25:54.520Z,7.57
2022-10-20T04:28:21.345Z,6.60
2022-10-20T04:30:47.956Z,6.80
2022-10-20T04:33:14.767Z,5.82
2022-10-20T04:35:41.553Z,6.18
2022-10-20T04:38:08.171Z,5.47
2022-10-20T04:40:34.637Z,6.32
2022-10-20T04:43:01.722Z,6.50
2022-10-20T04:45:28.218Z,6.45
2022-10-20T04:47:54.662Z,6.13
2022-10-20T04:50:21.071Z,6.53
2022-10-20T04:52:47.551Z,6.60
2022-10-20T04:55:16.352Z,6.65
2022-10-20T04:57:45.068Z,6.78
2022-10-20T05:00:12.074Z,6.43
2022-10-20T05:02:40.576Z,6.35
2022-10-20T05:05:11.624Z,6.78
2022-10-20T05:07:40.381Z,6.43
2022-10-20T05:10:07.312Z,6.97
2022-10-20T05:12:34.175Z,6.45
2022-10-20T05:15:00.977Z,6.75
2022-10-20T05:17:29.942Z,6.57
2022-10-20T05:19:56.656Z,7.72
2022-10-20T05:22:23.049Z,7.05
2022-10-20T05:24:51.873Z,7.15
2022-10-20T05:27:18.205Z,7.25
2022-10-20T05:29:47.147Z,7.47
2022-10-20T05:32:13.599Z,8.23
2022-10-20T05:34:40.192Z,7.10
2022-10-20T05:37:06.956Z,8.15
2022-10-20T05:39:33.371Z,8.30
2022-10-20T05:41:59.734Z,7.53
2022-10-20T05:44:26.112Z,7.90
2022-10-20T05:46:52.526Z,9.00
2022-10-20T05:49:18.947Z,7.82
2022-10-20T05:51:46.777Z,8.75
2022-10-20T05:54:14.135Z,9.55
2022-10-20T05:56:40.653Z,8.38
2022-10-20T05:59:07.580Z,8.55
2022-10-20T06:01:48.150Z,7.65
2022-10-20T06:04:17.437Z,9.10
2022-10-20T06:06:44.176Z,9.40
2022-10-20T06:09:11.894Z,10.57
2022-10-20T06:11:39.700Z,9.07
2022-10-20T06:14:07.852Z,9.10
2022-10-20T06:16:34.776Z,8.85
2022-10-20T06:19:01.525Z,10.48
2022-10-20T06:21:32.401Z,10.73
2022-10-20T06:24:00.033Z,10.35
2022-10-20T06:26:33.048Z,10.27
2022-10-20T06:29:04.293Z,11.10
2022-10-20T06:31:34.966Z,10.13
2022-10-20T06:34:04.623Z,9.48
2022-10-20T06:36:31.050Z,10.30
2022-10-20T06:38:59.099Z,9.88
2022-10-20T06:41:26.906Z,10.80
2022-10-20T06:44:00.559Z,10.50
2022-10-20T06:46:28.839Z,9.95
2022-10-20T06:48:58.609Z,11.20
2022-10-20T06:51:26.082Z,9.85
2022-10-20T06:53:53.024Z,9.85
2022-10-20T06:56:22.889Z,12.15
2022-10-20T06:58:51.365Z,10.00
2022-10-20T07:01:26.044Z,11.13
2022-10-20T07:03:55.128Z,10.15
2022-10-20T07:06:25.315Z,10.55
2022-10-20T07:08:56.314Z,10.38
2022-10-20T07:11:30.484Z,10.50
2022-10-20T07:14:01.476Z,9.40
2022-10-20T07:16:32.480Z,9.93
2022-10-20T07:19:00.242Z,9.82
2022-10-20T07:21:32.345Z,9.02
2022-10-20T07:24:04.068Z,9.13
2022-10-20T07:26:33.284Z,10.05
2022-10-20T07:29:01.556Z,10.65
2022-10-20T07:31:37.051Z,9.15
2022-10-20T07:34:23.776Z,9.68
2022-10-20T07:36:51.142Z,9.23
2022-10-20T07:39:20.007Z,9.05
2022-10-20T07:41:47.904Z,9.20
2022-10-20T07:44:14.666Z,8.55
2022-10-20T07:46:41.202Z,9.48
2022-10-20T07:51:54.180Z,9.57
2022-10-20T07:54:20.575Z,9.00
2022-10-20T07:56:47.062Z,8.40
2022-10-20T07:59:14.548Z,8.07
2022-10-20T08:01:43.939Z,8.55
2022-10-20T08:04:10.952Z,8.15
2022-10-20T08:06:39.265Z,9.38
2022-10-20T08:09:06.420Z,8.07
2022-10-20T08:11:33.160Z,9.00
2022-10-20T08:13:59.643Z,8.13
2022-10-20T08:16:27.862Z,9.10
2022-10-20T08:21:40.405Z,7.78
2022-10-20T08:24:06.848Z,7.32
2022-10-20T08:26:33.280Z,8.32
2022-10-20T08:28:59.909Z,8.15
2022-10-20T08:31:26.316Z,9.27
2022-10-20T08:33:56.756Z,9.07
2022-10-20T08:36:23.354Z,8.20
2022-10-20T08:38:49.777Z,6.95
2022-10-20T08:41:38.780Z,7.03
2022-10-20T08:44:22.533Z,7.88
2022-10-20T08:46:49.605Z,6.78
2022-10-20T08:49:23.150Z,6.05
2022-10-20T08:51:49.817Z,5.95
2022-10-20T08:54:17.610Z,5.95
2022-10-20T08:56:47.314Z,6.45
2022-10-20T08:59:26.399Z,5.78
2022-10-20T09:01:54.406Z,5.55
2022-10-20T09:04:23.945Z,6.28
2022-10-20T09:06:59.287Z,5.70
2022-10-20T09:09:30.285Z,6.22
2022-10-20T09:12:05.266Z,6.50
2022-10-20T09:14:37.139Z,6.70
2022-10-20T09:17:06.912Z,5.45
2022-10-20T09:19:35.934Z,6.07
2022-10-20T09:22:06.992Z,6.35
2022-10-20T09:24:35.651Z,6.17
2022-10-20T09:27:22.576Z,6.28
2022-10-20T09:29:49.335Z,6.55
2022-10-20T09:32:55.502Z,5.88
2022-10-20T09:35:27.519Z,5.43
2022-10-20T09:37:58.676Z,5.82
2022-10-20T09:40:26.732Z,5.37
2022-10-20T09:43:00.101Z,5.97
2022-10-20T09:45:29.965Z,5.95
2022-10-20T09:48:03.888Z,6.43
2022-10-20T09:50:34.831Z,6.57
2022-10-20T09:53:07.325Z,5.28
2022-10-20T09:55:41.925Z,5.43
2022-10-20T09:58:21.625Z,4.95
2022-10-20T10:00:56.873Z,5.63
2022-10-20T10:03:24.201Z,6.20
2022-10-20T10:05:53.704Z,5.57
2022-10-20T10:08:22.299Z,6.20
2022-10-20T10:11:05.557Z,6.80
2022-10-20T10:13:42.824Z,6.10
2022-10-20T10:16:14.150Z,7.95
2022-10-20T10:18:45.441Z,5.88
2022-10-20T10:21:17.459Z,6.30
2022-10-20T10:23:51.186Z,6.47
2022-10-20T10:26:32.989Z,6.70
2022-10-20T10:28:59.477Z,6.20
2022-10-20T10:31:26.750Z,5.90
2022-10-20T10:34:22.744Z,5.15
2022-10-20T10:36:51.410Z,4.72
2022-10-20T10:39:17.853Z,5.15
2022-10-20T10:41:53.118Z,5.53
2022-10-20T10:44:33.570Z,6.13
2022-10-20T10:47:19.059Z,4.93
2022-10-20T10:50:16.540Z,5.47
2022-10-20T10:53:15.555Z,5.05
2022-10-20T10:55:56.641Z,4.78
2022-10-20T10:58:41.416Z,5.53
2022-10-20T11:01:50.133Z,4.88
2022-10-20T11:04:29.310Z,4.22
2022-10-20T11:06:58.704Z,5.88
2022-10-20T11:09:31.787Z,5.13
2022-10-20T11:12:08.944Z,5.05
2022-10-20T11:15:02.834Z,4.97
2022-10-20T11:17:42.690Z,4.47
2022-10-20T11:20:15.801Z,4.13
2022-10-20T11:23:07.136Z,4.45
2022-10-20T11:25:42.353Z,4.77
2022-10-20T11:28:31.752Z,4.13
2022-10-20T11:31:01.613Z,4.80
2022-10-20T11:33:39.289Z,5.30
2022-10-20T11:36:19.388Z,5.30
2022-10-20T11:38:54.991Z,5.57
2022-10-20T11:41:36.543Z,5.07
2022-10-20T11:44:36.604Z,5.18
2022-10-20T11:47:08.133Z,4.80
2022-10-20T11:49:34.758Z,4.30
2022-10-20T11:52:37.028Z,5.03
2022-10-20T11:55:20.877Z,5.18
2022-10-20T11:58:24.608Z,5.47
2022-10-20T12:00:59.961Z,5.03
2022-10-20T12:03:36.854Z,5.32
2022-10-20T12:06:15.342Z,5.90
2022-10-20T12:08:41.829Z,4.93
2022-10-20T12:11:30.098Z,5.28
2022-10-20T12:14:14.828Z,4.85
2022-10-20T12:16:53.750Z,5.30
2022-10-20T12:19:29.592Z,4.68
2022-10-20T12:22:26.740Z,5.60
2022-10-20T12:24:53.172Z,5.30
2022-10-20T12:27:25.233Z,5.32
2022-10-20T12:30:02.087Z,4.50
2022-10-20T12:32:28.487Z,6.05
2022-10-20T12:34:59.021Z,5.55
2022-10-20T12:37:29.445Z,5.53
2022-10-20T12:40:23.783Z,7.22
2022-10-20T12:42:53.593Z,5.88
2022-10-20T12:45:19.916Z,5.63
2022-10-20T12:47:54.962Z,5.82
2022-10-20T12:50:27.247Z,5.20
2022-10-20T12:52:54.316Z,5.10
2022-10-20T12:55:38.223Z,5.57
2022-10-20T12:58:26.766Z,6.00
2022-10-20T13:00:53.532Z,5.65
2022-10-20T13:03:32.184Z,5.80
2022-10-20T13:05:59.488Z,5.70
2022-10-20T13:08:29.861Z,6.13
2022-10-20T13:11:16.889Z,5.45
2022-10-20T13:13:55.115Z,6.10
2022-10-20T13:16:23.525Z,5.63
2022-10-20T13:18:53.219Z,5.80
2022-10-20T13:21:30.676Z,5.07
2022-10-20T13:24:14.299Z,5.63
2022-10-20T13:26:43.687Z,5.93
2022-10-20T13:29:33.129Z,5.03
2022-10-20T13:32:14.849Z,6.25
2022-10-20T13:34:45.416Z,5.85
2022-10-20T13:37:31.153Z,7.38
2022-10-20T13:40:18.921Z,5.60
2022-10-20T13:43:07.529Z,6.68
2022-10-20T13:45:49.146Z,10.70
2022-10-20T13:48:39.867Z,8.75
2022-10-20T13:51:18.415Z,6.60
2022-10-20T13:53:50.503Z,5.72
2022-10-20T13:56:16.834Z,5.90
2022-10-20T13:59:18.414Z,5.55
2022-10-20T14:01:50.961Z,4.80
2022-10-20T14:04:35.308Z,4.90
2022-10-20T14:07:05.126Z,5.40
2022-10-20T14:09:37.912Z,5.80
2022-10-20T14:12:17.099Z,4.55
2022-10-20T14:14:45.027Z,5.00
2022-10-20T14:17:22.892Z,4.57
2022-10-20T14:19:52.722Z,5.07
2022-10-20T14:22:25.383Z,5.05
2022-10-20T14:24:57.280Z,4.53
2022-10-20T14:27:28.131Z,5.32
2022-10-20T14:29:56.564Z,5.25
2022-10-20T14:32:26.558Z,4.70
2022-10-20T14:35:16.493Z,4.70
2022-10-20T14:37:53.384Z,4.82
2022-10-20T14:40:19.850Z,7.28
2022-10-20T14:42:46.959Z,8.98
2022-10-20T14:45:25.886Z,11.82
2022-10-20T14:47:54.354Z,9.65
2022-10-20T14:50:42.096Z,14.20
2022-10-20T14:53:25.425Z,14.57
2022-10-20T14:55:54.210Z,11.65
2022-10-20T14:59:01.975Z,9.10
2022-10-20T15:01:32.472Z,7.68
2022-10-20T15:04:11.049Z,8.35
2022-10-20T15:06:37.887Z,8.30
2022-10-20T15:09:04.788Z,6.50
2022-10-20T15:11:36.101Z,6.97
2022-10-20T15:14:02.540Z,7.97
2022-10-20T15:16:39.689Z,6.38
2022-10-20T15:19:29.185Z,9.32
2022-10-20T15:22:02.413Z,7.65
2022-10-20T15:24:29.159Z,7.93
2022-10-20T15:26:57.011Z,6.38
2022-10-20T15:29:24.092Z,5.63
2022-10-20T15:31:50.532Z,5.40
2022-10-20T15:34:19.489Z,5.38
2022-10-20T15:36:47.619Z,5.88
2022-10-20T15:39:16.804Z,6.60
2022-10-20T15:41:47.107Z,5.70
2022-10-20T15:44:22.025Z,6.10
2022-10-20T15:46:52.252Z,6.40
2022-10-20T15:49:19.074Z,5.50
2022-10-20T15:51:47.200Z,4.90
2022-10-20T15:54:16.278Z,5.15
2022-10-20T15:56:42.922Z,4.90
2022-10-20T15:59:09.329Z,4.45
2022-10-20T16:01:36.230Z,5.38
2022-10-20T16:04:16.586Z,6.70
2022-10-20T16:06:43.770Z,8.35
2022-10-20T16:09:15.772Z,10.35
2022-10-20T16:11:43.177Z,7.63
2022-10-20T16:14:09.798Z,8.35
2022-10-20T16:16:36.257Z,6.22
2022-10-20T16:19:02.900Z,6.05
2022-10-20T16:21:29.470Z,6.05
2022-10-20T16:23:55.979Z,5.03
2022-10-20T16:26:22.438Z,5.45
2022-10-20T16:28:49.053Z,4.88
2022-10-20T16:31:16.547Z,5.05
2022-10-20T16:33:43.405Z,6.40
2022-10-20T16:36:11.968Z,5.28
2022-10-20T16:38:40.881Z,6.05
2022-10-20T16:41:13.190Z,5.30
2022-10-20T16:43:48.027Z,6.75
2022-10-20T16:46:15.255Z,7.05
2022-10-20T16:48:42.822Z,5.70
2022-10-20T16:51:15.152Z,6.15
2022-10-20T16:53:41.664Z,5.33
2022-10-20T16:56:08.308Z,6.07
2022-10-20T16:58:35.545Z,6.10
2022-10-20T17:01:06.314Z,5.03
2022-10-20T17:03:35.572Z,6.20
2022-10-20T17:06:06.551Z,6.82
2022-10-20T17:08:34.661Z,7.95
2022-10-20T17:11:04.019Z,7.85
2022-10-20T17:13:31.283Z,8.45
2022-10-20T17:16:04.529Z,8.27
2022-10-20T17:18:30.923Z,8.70
2022-10-20T17:20:59.929Z,7.22
2022-10-20T17:23:26.603Z,6.70
2022-10-20T17:25:58.065Z,8.15
2022-10-20T17:28:24.408Z,7.75
2022-10-20T17:30:53.030Z,7.72
2022-10-20T17:33:19.380Z,8.30
2022-10-20T17:35:49.047Z,10.15
2022-10-20T17:38:15.527Z,8.20
2022-10-20T17:40:41.967Z,9.45
2022-10-20T17:43:08.362Z,10.38
2022-10-20T17:45:38.194Z,10.30
2022-10-20T17:48:05.358Z,11.38
2022-10-20T17:50:34.233Z,11.00
2022-10-20T17:53:01.389Z,9.23
2022-10-20T17:55:32.872Z,28.10
2022-10-20T17:58:06.436Z,53.90
2022-10-20T18:00:54.755Z,19.60
2022-10-20T18:03:19.203Z,21.50
2022-10-20T18:05:45.576Z,11.63
2022-10-20T18:08:11.948Z,23.33
2022-10-20T18:10:44.682Z,19.80
2022-10-20T18:13:11.098Z,38.10
2022-10-20T18:15:42.828Z,29.33
2022-10-20T18:18:12.341Z,16.38
2022-10-20T18:20:38.683Z,14.18
2022-10-20T18:23:07.402Z,21.88
2022-10-20T18:25:35.549Z,15.77
2022-10-20T18:28:01.976Z,18.65
2022-10-20T18:30:28.404Z,12.90
2022-10-20T18:32:54.938Z,10.63
2022-10-20T18:35:23.439Z,11.23
2022-10-20T18:37:56.014Z,11.15
2022-10-20T18:40:24.695Z,18.77
2022-10-20T18:42:53.526Z,15.40
2022-10-20T18:45:22.643Z,12.55
2022-10-20T18:47:51.723Z,13.10
2022-10-20T18:50:18.266Z,12.80
2022-10-20T18:52:47.212Z,10.85
2022-10-20T18:55:13.635Z,11.00
2022-10-20T18:57:40.298Z,15.32
2022-10-20T19:00:08.658Z,15.95
2022-10-20T19:02:35.503Z,13.73
2022-10-20T19:05:03.228Z,14.23
2022-10-20T19:07:32.502Z,14.07
2022-10-20T19:09:59.025Z,14.30
2022-10-20T19:12:25.446Z,16.52
2022-10-20T19:14:52.409Z,22.17
2022-10-20T19:17:18.789Z,16.00
2022-10-20T19:19:46.485Z,17.95
2022-10-20T19:22:12.905Z,12.23
2022-10-20T19:24:40.611Z,12.02
2022-10-20T19:27:25.595Z,10.90
2022-10-20T19:29:56.035Z,10.50
2022-10-20T19:32:22.485Z,10.55
2022-10-20T19:34:48.910Z,20.92
2022-10-20T19:37:15.333Z,24.77
2022-10-20T19:39:42.366Z,13.95
2022-10-20T19:42:10.363Z,14.48
2022-10-20T19:44:37.269Z,20.95
2022-10-20T19:47:04.949Z,28.33
2022-10-20T19:49:31.567Z,27.45
2022-10-20T19:51:58.756Z,13.75
2022-10-20T19:54:27.065Z,12.63
2022-10-20T19:56:53.518Z,44.88
2022-10-20T19:59:22.424Z,29.35
2022-10-20T20:01:54.149Z,17.25
2022-10-20T20:04:25.581Z,21.77
2022-10-20T20:06:51.975Z,12.20
2022-10-20T20:09:18.537Z,13.40
2022-10-20T20:11:44.965Z,12.98
2022-10-20T20:14:29.152Z,13.75
2022-10-20T20:16:56.028Z,14.63
2022-10-20T20:19:22.420Z,14.25
2022-10-20T20:21:48.819Z,13.07
2022-10-20T20:24:15.279Z,11.02
2022-10-20T20:26:42.163Z,20.00
2022-10-20T20:29:09.682Z,12.13
2022-10-20T20:31:36.116Z,11.00
2022-10-20T20:34:02.548Z,12.45
2022-10-20T20:36:29.097Z,10.90
2022-10-20T20:38:59.444Z,10.77
2022-10-20T20:41:28.165Z,11.45
2022-10-20T20:43:54.577Z,11.55
2022-10-20T20:46:23.641Z,11.13
2022-10-20T20:48:53.341Z,11.70
2022-10-20T20:51:25.217Z,11.50
2022-10-20T20:53:51.628Z,10.63
2022-10-20T20:56:21.669Z,8.77
2022-10-20T20:58:50.445Z,10.60
2022-10-20T21:01:18.706Z,11.32
2022-10-20T21:03:45.923Z,11.30
2022-10-20T21:06:17.505Z,10.63
2022-10-20T21:08:50.084Z,11.27
2022-10-20T21:11:23.098Z,11.15
2022-10-20T21:13:51.330Z,10.52
2022-10-20T21:16:28.273Z,10.93
2022-10-20T21:18:58.142Z,10.70
2022-10-20T21:21:38.879Z,11.02
2022-10-20T21:24:06.520Z,10.60
2022-10-20T21:26:35.019Z,10.90
2022-10-20T21:29:06.650Z,10.10
2022-10-20T21:31:33.082Z,10.80
2022-10-20T21:34:04.797Z,10.00
2022-10-20T21:36:34.643Z,8.93
2022-10-20T21:39:02.348Z,9.10
2022-10-20T21:41:32.295Z,9.27
2022-10-20T21:44:03.597Z,10.05
2022-10-20T21:46:35.902Z,10.30
2022-10-20T21:49:07.913Z,9.60
2022-10-20T21:54:08.188Z,9.98
2022-10-20T21:59:06.402Z,10.57
2022-10-20T22:01:35.226Z,9.15
2022-10-20T22:04:02.003Z,10.23
2022-10-20T22:06:31.054Z,8.95
2022-10-20T22:09:03.679Z,9.02
2022-10-20T22:11:33.559Z,8.95
2022-10-20T22:14:00.500Z,10.00
2022-10-20T22:16:30.325Z,9.55
2022-10-20T22:19:21.191Z,9.38
2022-10-20T22:21:49.897Z,10.23
2022-10-20T22:24:18.511Z,9.18
2022-10-20T22:26:44.994Z,9.75
2022-10-20T22:29:11.415Z,11.57
2022-10-20T22:31:39.626Z,10.10
2022-10-20T22:34:06.618Z,9.90
2022-10-20T22:36:33.090Z,10.50
2022-10-20T22:39:02.296Z,10.27
2022-10-20T22:41:28.755Z,10.27
2022-10-20T22:43:55.183Z,10.20
2022-10-20T22:46:21.609Z,11.57
2022-10-20T22:48:48.078Z,10.63
2022-10-20T22:51:15.614Z,10.68
2022-10-20T22:53:45.155Z,10.20
2022-10-20T22:56:20.698Z,10.45
2022-10-20T22:58:52.812Z,10.40
2022-10-20T23:01:22.395Z,10.95
2022-10-20T23:03:49.307Z,10.55
2022-10-20T23:06:22.043Z,11.02
2022-10-20T23:08:53.828Z,10.35
2022-10-20T23:11:21.007Z,9.75
2022-10-20T23:13:47.993Z,10.52
2022-10-20T23:16:14.656Z,10.60
2022-10-20T23:18:46.109Z,10.00
2022-10-20T23:21:13.767Z,11.43
2022-10-20T23:23:40.855Z,9.85
2022-10-20T23:26:10.674Z,11.75
2022-10-20T23:28:38.619Z,10.82
2022-10-20T23:31:19.288Z,10.55
2022-10-20T23:33:47.234Z,9.40
2022-10-20T23:36:17.379Z,10.27
2022-10-20T23:38:47.513Z,10.98
2022-10-20T23:41:14.620Z,10.82
2022-10-20T23:43:41.147Z,11.57
2022-10-20T23:46:07.893Z,10.65
2022-10-20T23:48:34.923Z,10.38
2022-10-20T23:51:04.049Z,10.35
2022-10-20T23:53:30.833Z,9.50
2022-10-20T23:55:59.531Z,9.10
2022-10-20T23:58:28.772Z,10.57
